createdAt,value
2018-03-18T06:27:36.972Z,20
2018-03-18T06:28:35.305Z,20
2018-03-18T06:29:35.059Z,20
2018-03-18T06:30:35.283Z,20
2018-03-18T06:31:34.831Z,20
2018-03-18T06:32:35.547Z,20
2018-03-18T06:33:35.234Z,20
2018-03-18T06:34:35.214Z,20
2018-03-18T06:35:34.944Z,25
2018-03-18T06:36:34.971Z,25
2018-03-18T06:37:35.441Z,25
2018-03-18T06:38:34.653Z,25
2018-03-18T06:39:35.181Z,25
2018-03-18T06:40:35.136Z,25
2018-03-18T06:41:35.138Z,30
2018-03-18T06:42:35.128Z,30
2018-03-18T06:43:34.590Z,30
2018-03-18T06:44:35.101Z,30
2018-03-18T06:45:34.304Z,30
2018-03-18T06:46:34.540Z,30
2018-03-18T06:47:34.794Z,30
2018-03-18T06:48:34.781Z,35
2018-03-18T06:49:34.787Z,35
2018-03-18T06:50:35.022Z,35
2018-03-18T06:51:34.747Z,35
2018-03-18T06:52:35.006Z,40
2018-03-18T06:53:34.984Z,40
2018-03-18T06:54:34.976Z,40
2018-03-18T06:55:34.180Z,40
2018-03-18T06:56:34.674Z,40
2018-03-18T06:57:35.735Z,45
2018-03-18T06:58:34.418Z,45
2018-03-18T06:59:34.636Z,45
2018-03-18T07:00:34.626Z,45
2018-03-18T07:01:34.629Z,45
2018-03-18T07:02:34.353Z,45
2018-03-18T07:03:34.582Z,45
2018-03-18T07:04:34.583Z,45
2018-03-18T07:05:34.570Z,50
2018-03-18T07:06:34.568Z,50
2018-03-18T07:07:34.605Z,50
2018-03-18T07:08:34.520Z,50
2018-03-18T07:09:34.553Z,50
2018-03-18T07:10:34.511Z,50
2018-03-18T07:11:34.787Z,50
2018-03-18T07:12:34.515Z,55
2018-03-18T07:13:34.740Z,55
2018-03-18T07:14:34.759Z,55
2018-03-18T07:15:34.707Z,55
2018-03-18T07:16:34.458Z,55
2018-03-18T07:17:34.435Z,60
2018-03-18T07:18:34.658Z,60
2018-03-18T07:19:34.387Z,60
2018-03-18T07:20:34.389Z,60
2018-03-18T07:21:34.362Z,60
2018-03-18T07:22:34.097Z,60
2018-03-18T07:23:34.759Z,60
2018-03-18T07:24:34.079Z,65
2018-03-18T07:25:34.237Z,65
2018-03-18T07:26:34.699Z,65
2018-03-18T07:27:35.350Z,65
2018-03-18T07:28:34.286Z,65
2018-03-18T07:29:34.027Z,65
2018-03-18T07:30:34.316Z,65
2018-03-18T07:31:34.246Z,65
2018-03-18T07:32:34.502Z,65
2018-03-18T07:33:33.966Z,65
2018-03-18T07:34:34.212Z,65
2018-03-18T07:35:34.462Z,65
2018-03-18T07:36:34.258Z,65
2018-03-18T07:37:34.456Z,65
2018-03-18T07:38:34.517Z,65
2018-03-18T07:39:34.410Z,65
2018-03-18T07:40:33.896Z,60
2018-03-18T07:41:34.152Z,60
2018-03-18T07:42:34.125Z,65
2018-03-18T07:43:34.379Z,65
2018-03-18T07:44:33.835Z,65
2018-03-18T07:45:33.568Z,65
2018-03-18T07:46:34.077Z,65
2018-03-18T07:47:34.061Z,65
2018-03-18T07:48:33.795Z,65
2018-03-18T07:49:34.034Z,65
2018-03-18T07:50:33.786Z,65
2018-03-18T07:51:34.026Z,65
2018-03-18T07:52:33.741Z,65
2018-03-18T07:53:34.008Z,65
2018-03-18T07:54:33.978Z,65
2018-03-18T07:55:34.220Z,65
2018-03-18T07:56:33.957Z,65
2018-03-18T07:57:34.486Z,65
2018-03-18T07:58:33.933Z,70
2018-03-18T07:59:33.922Z,70
2018-03-18T08:00:33.898Z,70
2018-03-18T08:01:33.902Z,75
2018-03-18T08:02:33.906Z,75
2018-03-18T08:03:33.611Z,75
2018-03-18T08:04:33.609Z,75
2018-03-18T08:05:33.587Z,80
2018-03-18T08:06:33.830Z,80
2018-03-18T08:07:33.574Z,85
2018-03-18T08:08:34.064Z,85
2018-03-18T08:09:34.050Z,90
2018-03-18T08:10:33.559Z,90
2018-03-18T08:11:33.584Z,90
2018-03-18T08:12:33.537Z,90
2018-03-18T08:13:33.805Z,90
2018-03-18T08:14:34.018Z,90
2018-03-18T08:15:33.997Z,95
2018-03-18T08:16:33.203Z,95
2018-03-18T08:17:33.951Z,90
2018-03-18T08:18:33.687Z,90
2018-03-18T08:19:33.173Z,90
2018-03-18T08:20:32.907Z,95
2018-03-18T08:21:33.397Z,95
2018-03-18T08:22:33.409Z,95
2018-03-18T08:23:33.377Z,100
2018-03-18T08:24:33.637Z,100
2018-03-18T08:25:33.865Z,100
2018-03-18T08:26:33.341Z,100
2018-03-18T08:27:33.599Z,105
2018-03-18T08:28:37.838Z,110
2018-03-18T08:29:33.837Z,110
2018-03-18T08:30:33.803Z,115
2018-03-18T08:31:33.802Z,120
2018-03-18T08:32:33.291Z,120
2018-03-18T08:33:33.529Z,125
2018-03-18T08:34:33.512Z,135
2018-03-18T08:35:33.760Z,140
2018-03-18T08:36:33.471Z,150
2018-03-18T08:37:33.475Z,155
2018-03-18T08:38:33.196Z,155
2018-03-18T08:39:33.192Z,160
2018-03-18T08:40:33.702Z,165
2018-03-18T08:41:33.216Z,170
2018-03-18T08:42:33.418Z,175
2018-03-18T08:43:34.899Z,180
2018-03-18T08:44:33.644Z,180
2018-03-18T08:45:33.622Z,180
2018-03-18T08:46:33.367Z,175
2018-03-18T08:47:33.608Z,175
2018-03-18T08:48:33.091Z,170
2018-03-18T08:49:33.590Z,165
2018-03-18T08:50:33.562Z,160
2018-03-18T08:51:33.560Z,150
2018-03-18T08:52:33.313Z,145
2018-03-18T08:53:33.281Z,140
2018-03-18T08:54:33.527Z,135
2018-03-18T08:55:33.503Z,135
2018-03-18T08:56:33.235Z,130
2018-03-18T08:57:33.262Z,130
2018-03-18T08:58:33.221Z,130
2018-03-18T08:59:33.654Z,125
2018-03-18T09:00:33.215Z,125
2018-03-18T09:01:33.436Z,125
2018-03-18T09:02:33.183Z,130
2018-03-18T09:03:33.438Z,130
2018-03-18T09:04:33.171Z,140
2018-03-18T09:05:33.401Z,135
2018-03-18T09:06:33.405Z,135
2018-03-18T09:07:33.163Z,140
2018-03-18T09:08:33.165Z,140
2018-03-18T09:09:33.376Z,145
2018-03-18T09:10:33.124Z,150
2018-03-18T09:11:33.324Z,150
2018-03-18T09:12:33.068Z,150
2018-03-18T09:13:32.546Z,155
2018-03-18T09:14:33.532Z,155
2018-03-18T09:15:33.279Z,160
2018-03-18T09:16:32.756Z,165
2018-03-18T09:17:33.019Z,170
2018-03-18T09:18:33.248Z,170
2018-03-18T09:19:32.726Z,170
2018-03-18T09:20:32.976Z,170
2018-03-18T09:21:32.958Z,175
2018-03-18T09:22:33.228Z,175
2018-03-18T09:23:32.944Z,175
2018-03-18T09:24:32.917Z,175
2018-03-18T09:25:33.184Z,175
2018-03-18T09:26:32.943Z,175
2018-03-18T09:27:33.138Z,175
2018-03-18T09:28:33.154Z,175
2018-03-18T09:29:33.190Z,175
2018-03-18T09:30:32.853Z,175
2018-03-18T09:31:33.096Z,180
2018-03-18T09:32:33.088Z,180
2018-03-18T09:33:32.837Z,190
2018-03-18T09:34:32.837Z,200
2018-03-18T09:35:33.051Z,195
2018-03-18T09:36:33.039Z,200
2018-03-18T09:37:33.054Z,205
2018-03-18T09:38:33.090Z,210
2018-03-18T09:39:33.073Z,210
2018-03-18T09:40:32.994Z,215
2018-03-18T09:41:32.751Z,220
2018-03-18T09:42:32.475Z,225
2018-03-18T09:43:32.801Z,230
2018-03-18T09:44:37.000Z,235
2018-03-18T09:45:32.678Z,235
2018-03-18T09:46:32.449Z,235
2018-03-18T09:47:32.413Z,235
2018-03-18T09:48:32.927Z,230
2018-03-18T09:49:32.910Z,230
2018-03-18T09:50:32.890Z,235
2018-03-18T09:51:32.717Z,225
2018-03-18T09:52:32.609Z,225
2018-03-18T09:53:32.850Z,230
2018-03-18T09:54:33.387Z,230
2018-03-18T09:55:32.584Z,235
2018-03-18T09:56:32.940Z,245
2018-03-18T09:57:32.575Z,250
2018-03-18T09:58:32.821Z,255
2018-03-18T09:59:36.780Z,265
2018-03-18T10:00:32.518Z,270
2018-03-18T10:01:32.779Z,280
2018-03-18T10:02:32.807Z,295
2018-03-18T10:03:32.499Z,310
2018-03-18T10:04:32.225Z,325
2018-03-18T10:05:32.476Z,335
2018-03-18T10:06:32.718Z,345
2018-03-18T10:07:32.459Z,355
2018-03-18T10:08:32.182Z,360
2018-03-18T10:09:31.926Z,360
2018-03-18T10:10:31.907Z,355
2018-03-18T10:11:32.910Z,350
2018-03-18T10:12:32.670Z,345
2018-03-18T10:13:32.131Z,330
2018-03-18T10:14:32.624Z,315
2018-03-18T10:15:32.677Z,300
2018-03-18T10:16:32.106Z,285
2018-03-18T10:17:32.356Z,275
2018-03-18T10:18:32.596Z,265
2018-03-18T10:19:32.332Z,255
2018-03-18T10:20:32.205Z,240
2018-03-18T10:21:32.316Z,235
2018-03-18T10:22:32.589Z,230
2018-03-18T10:23:32.307Z,225
2018-03-18T10:24:32.546Z,220
2018-03-18T10:25:31.763Z,220
2018-03-18T10:26:32.528Z,220
2018-03-18T10:27:32.524Z,230
2018-03-18T10:28:32.256Z,235
2018-03-18T10:58:35.691Z,300
2018-03-18T10:59:35.424Z,300
2018-03-18T11:00:35.156Z,300
2018-03-18T11:01:35.638Z,315
2018-03-18T11:02:35.133Z,325
2018-03-18T11:03:35.617Z,340
2018-03-18T11:04:35.605Z,360
2018-03-18T11:05:35.593Z,370
2018-03-18T11:06:35.322Z,375
2018-03-18T11:07:34.804Z,390
2018-03-18T11:08:35.052Z,395
2018-03-18T11:09:35.303Z,400
2018-03-18T11:10:35.314Z,415
2018-03-18T11:11:35.275Z,435
2018-03-18T11:12:35.540Z,440
2018-03-18T11:13:36.297Z,450
2018-03-18T11:14:34.985Z,445
2018-03-18T11:15:35.502Z,430
2018-03-18T11:16:35.261Z,405
2018-03-18T11:17:34.705Z,390
2018-03-18T11:18:34.971Z,390
2018-03-18T11:19:34.954Z,375
2018-03-18T11:20:35.445Z,360
2018-03-18T11:21:35.449Z,350
2018-03-18T11:22:34.668Z,335
2018-03-18T11:23:34.909Z,330
2018-03-18T11:24:34.888Z,330
2018-03-18T11:25:35.387Z,330
2018-03-18T11:26:35.148Z,335
2018-03-18T11:27:35.129Z,335
2018-03-18T11:28:35.352Z,330
2018-03-18T11:29:34.856Z,330
2018-03-18T11:30:34.593Z,330
2018-03-18T11:31:35.086Z,330
2018-03-18T11:32:35.078Z,325
2018-03-18T11:33:35.325Z,340
2018-03-18T11:34:35.048Z,330
2018-03-18T11:35:35.050Z,330
2018-03-18T11:36:35.045Z,325
2018-03-18T11:37:35.034Z,330
2018-03-18T11:38:35.054Z,330
2018-03-18T11:39:35.015Z,335
2018-03-18T11:40:35.273Z,335
2018-03-18T11:41:35.263Z,335
2018-03-18T11:42:34.729Z,335
2018-03-18T11:43:39.159Z,330
2018-03-18T11:44:35.251Z,335
2018-03-18T11:45:35.209Z,335
2018-03-18T11:46:34.962Z,335
2018-03-18T11:47:34.957Z,335
2018-03-18T11:48:35.189Z,330
2018-03-18T11:49:34.888Z,315
2018-03-18T11:50:34.666Z,305
2018-03-18T11:51:34.640Z,300
2018-03-18T11:52:34.399Z,290
2018-03-18T11:53:35.177Z,285
2018-03-18T11:54:34.620Z,285
2018-03-18T11:55:34.615Z,285
2018-03-18T11:56:34.874Z,285
2018-03-18T11:57:34.919Z,290
2018-03-18T11:58:34.873Z,280
2018-03-18T11:59:35.099Z,280
2018-03-18T12:00:34.564Z,275
2018-03-18T12:01:35.063Z,275
2018-03-18T12:02:35.063Z,275
2018-03-18T12:03:34.784Z,270
2018-03-18T12:04:34.794Z,260
2018-03-18T12:05:34.515Z,250
2018-03-18T12:06:35.030Z,250
2018-03-18T12:07:35.005Z,250
2018-03-18T12:08:35.015Z,250
2018-03-18T12:09:34.990Z,250
2018-03-18T12:10:34.984Z,245
2018-03-18T12:11:34.970Z,240
2018-03-18T12:12:34.991Z,250
2018-03-18T12:13:34.183Z,260
2018-03-18T12:14:36.225Z,265
2018-03-18T12:15:34.966Z,265
2018-03-18T12:16:34.420Z,265
2018-03-18T12:17:34.901Z,260
2018-03-18T12:18:34.393Z,255
2018-03-18T12:19:35.108Z,250
2018-03-18T12:20:34.644Z,250
2018-03-18T12:21:34.869Z,250
2018-03-18T12:22:34.356Z,250
2018-03-18T12:23:34.598Z,255
2018-03-18T12:24:34.605Z,260
2018-03-18T12:25:34.630Z,260
2018-03-18T12:26:34.840Z,265
2018-03-18T12:27:34.833Z,265
2018-03-18T12:28:34.875Z,265
2018-03-18T12:29:34.694Z,260
2018-03-18T12:30:34.535Z,255
2018-03-18T12:31:34.789Z,245
2018-03-18T12:32:34.526Z,230
2018-03-18T12:33:34.765Z,220
2018-03-18T12:34:34.750Z,205
2018-03-18T12:35:34.758Z,195
2018-03-18T12:36:34.486Z,180
2018-03-18T12:37:34.478Z,175
2018-03-18T12:38:34.743Z,165
2018-03-18T12:39:34.710Z,155
2018-03-18T12:40:34.719Z,155
2018-03-18T12:41:34.432Z,150
2018-03-18T12:42:34.493Z,155
2018-03-18T12:43:34.677Z,160
2018-03-18T12:44:35.974Z,160
2018-03-18T12:45:34.161Z,160
2018-03-18T12:46:34.642Z,160
2018-03-18T12:47:34.623Z,160
2018-03-18T12:48:33.849Z,155
2018-03-18T12:49:34.161Z,155
2018-03-18T12:50:34.120Z,155
2018-03-18T12:51:34.603Z,160
2018-03-18T12:52:34.314Z,165
2018-03-18T12:53:34.308Z,170
2018-03-18T12:54:34.305Z,175
2018-03-18T12:55:33.779Z,185
2018-03-18T12:56:34.021Z,190
2018-03-18T12:57:34.522Z,190
2018-03-18T12:58:34.261Z,200
2018-03-18T12:59:36.180Z,205
2018-03-18T13:00:34.598Z,210
2018-03-18T13:01:34.229Z,225
2018-03-18T13:02:34.507Z,230
2018-03-18T13:03:33.953Z,235
2018-03-18T13:04:34.486Z,230
2018-03-18T13:05:33.917Z,230
2018-03-18T13:06:34.171Z,235
2018-03-18T13:07:34.443Z,235
2018-03-18T13:08:33.895Z,235
2018-03-18T13:09:34.450Z,235
2018-03-18T13:10:34.045Z,240
2018-03-18T13:11:34.146Z,240
2018-03-18T13:12:34.383Z,245
2018-03-18T13:13:34.092Z,250
2018-03-18T13:14:33.926Z,250
2018-03-18T13:15:34.342Z,255
2018-03-18T13:16:33.841Z,255
2018-03-18T13:17:34.318Z,255
2018-03-18T13:18:33.795Z,255
2018-03-18T13:19:33.535Z,250
2018-03-18T13:20:33.785Z,245
2018-03-18T13:21:34.032Z,245
2018-03-18T13:22:33.760Z,240
2018-03-18T13:23:34.266Z,235
2018-03-18T13:24:34.256Z,235
2018-03-18T13:25:34.259Z,235
2018-03-18T13:26:34.021Z,235
2018-03-18T13:27:33.822Z,235
2018-03-18T13:28:34.208Z,235
2018-03-18T13:29:33.941Z,225
2018-03-18T13:30:34.268Z,220
2018-03-18T13:31:33.675Z,220
2018-03-18T13:32:33.932Z,220
2018-03-18T13:33:33.906Z,220
2018-03-18T13:34:33.905Z,220
2018-03-18T13:35:33.907Z,215
2018-03-18T13:36:34.125Z,210
2018-03-18T13:37:34.126Z,205
2018-03-18T13:38:33.859Z,205
2018-03-18T13:39:33.607Z,200
2018-03-18T13:40:33.842Z,205
2018-03-18T13:41:33.837Z,195
2018-03-18T13:42:34.085Z,190
2018-03-18T13:43:34.060Z,190
2018-03-18T13:44:33.792Z,185
2018-03-18T13:45:37.240Z,180
2018-03-18T13:46:33.783Z,175
2018-03-18T13:47:34.038Z,175
2018-03-18T13:48:34.013Z,175
2018-03-18T13:49:33.746Z,175
2018-03-18T13:50:33.487Z,170
2018-03-18T13:51:33.991Z,170
2018-03-18T13:52:33.734Z,170
2018-03-18T13:53:33.963Z,170
2018-03-18T13:54:33.586Z,170
2018-03-18T13:55:33.726Z,170
2018-03-18T13:56:33.939Z,170
2018-03-18T13:57:33.746Z,170
2018-03-18T13:58:33.395Z,170
2018-03-18T13:59:33.917Z,165
2018-03-18T14:00:33.953Z,165
2018-03-18T14:01:33.709Z,165
2018-03-18T14:02:33.879Z,165
2018-03-18T14:03:33.605Z,160
2018-03-18T14:04:33.110Z,155
2018-03-18T14:05:33.628Z,155
2018-03-18T14:06:33.859Z,155
2018-03-18T14:07:33.832Z,160
2018-03-18T14:08:33.821Z,150
2018-03-18T14:09:33.099Z,150
2018-03-18T14:10:33.285Z,150
2018-03-18T14:11:33.567Z,145
2018-03-18T14:12:33.560Z,145
2018-03-18T14:13:33.333Z,145
2018-03-18T14:14:33.239Z,145
2018-03-18T14:15:33.503Z,140
2018-03-18T14:16:35.590Z,140
2018-03-18T14:17:33.754Z,145
2018-03-18T14:18:33.706Z,140
2018-03-18T14:19:33.699Z,140
2018-03-18T14:20:33.434Z,140
2018-03-18T14:21:33.423Z,135
2018-03-18T14:22:33.428Z,135
2018-03-18T14:23:33.655Z,135
2018-03-18T14:24:33.644Z,135
2018-03-18T14:25:33.141Z,135
2018-03-18T14:26:33.650Z,135
2018-03-18T14:27:33.371Z,135
2018-03-18T14:28:33.611Z,130
2018-03-18T14:29:33.137Z,130
2018-03-18T14:30:33.326Z,125
2018-03-18T14:31:33.516Z,125
2018-03-18T14:32:33.370Z,130
2018-03-18T14:33:33.386Z,130
2018-03-18T14:34:33.054Z,130
2018-03-18T14:35:33.534Z,130
2018-03-18T14:36:33.280Z,130
2018-03-18T14:37:33.073Z,130
2018-03-18T14:38:33.517Z,125
2018-03-18T14:39:33.267Z,125
2018-03-18T14:40:32.986Z,125
2018-03-18T14:41:33.225Z,125
2018-03-18T14:42:32.961Z,125
2018-03-18T14:43:33.194Z,125
2018-03-18T14:44:33.445Z,125
2018-03-18T14:45:33.428Z,120
2018-03-18T14:46:33.669Z,120
2018-03-18T14:47:32.915Z,120
2018-03-18T14:48:33.407Z,120
2018-03-18T14:49:33.148Z,120
2018-03-18T14:50:33.136Z,120
2018-03-18T14:51:33.174Z,115
2018-03-18T14:52:33.541Z,115
2018-03-18T14:53:33.378Z,115
2018-03-18T14:54:33.387Z,115
2018-03-18T14:55:33.101Z,115
2018-03-18T14:56:33.071Z,115
2018-03-18T14:57:33.087Z,110
2018-03-18T14:58:33.170Z,110
2018-03-18T14:59:33.064Z,110
2018-03-18T15:00:32.787Z,110
2018-03-18T15:01:33.451Z,110
2018-03-18T15:02:32.762Z,110
2018-03-18T15:03:33.057Z,110
2018-03-18T15:04:32.749Z,110
2018-03-18T15:05:32.988Z,110
2018-03-18T15:06:32.966Z,110
2018-03-18T15:07:33.227Z,110
2018-03-18T15:08:32.976Z,110
2018-03-18T15:09:33.185Z,110
2018-03-18T15:10:33.202Z,110
2018-03-18T15:11:32.920Z,110
2018-03-18T15:12:32.397Z,110
2018-03-18T15:13:32.901Z,105
2018-03-18T15:14:33.158Z,105
2018-03-18T15:15:33.162Z,105
2018-03-18T15:16:35.591Z,105
2018-03-18T15:17:32.927Z,100
2018-03-18T15:18:32.953Z,100
2018-03-18T15:19:33.167Z,100
2018-03-18T15:20:33.109Z,95
2018-03-18T15:21:33.072Z,95
2018-03-18T15:22:33.096Z,95
2018-03-18T15:23:33.070Z,90
2018-03-18T15:24:32.799Z,90
2018-03-18T15:25:32.773Z,90
2018-03-18T15:26:32.772Z,85
2018-03-18T15:27:32.239Z,85
2018-03-18T15:28:32.481Z,85
2018-03-18T15:29:32.236Z,85
2018-03-18T15:30:32.502Z,85
2018-03-18T15:31:33.157Z,85
2018-03-18T15:32:32.957Z,85
2018-03-18T15:33:32.433Z,85
2018-03-18T15:34:32.684Z,85
2018-03-18T15:35:32.667Z,80
2018-03-18T15:36:32.427Z,75
2018-03-18T15:37:32.900Z,75
2018-03-18T15:38:32.392Z,75
2018-03-18T15:39:32.389Z,75
2018-03-18T15:40:32.633Z,70
2018-03-18T15:41:32.369Z,70
2018-03-18T15:42:32.604Z,70
2018-03-18T15:43:32.322Z,70
2018-03-18T15:44:32.689Z,70
2018-03-18T15:45:32.673Z,70
2018-03-18T15:46:33.387Z,70
2018-03-18T15:47:32.832Z,70
2018-03-18T15:48:32.537Z,70
2018-03-18T15:49:32.522Z,70
2018-03-18T15:50:32.506Z,65
2018-03-18T15:51:32.501Z,60
2018-03-18T15:52:32.804Z,60
2018-03-18T15:53:32.762Z,60
2018-03-18T15:54:32.462Z,60
2018-03-18T15:55:32.713Z,60
2018-03-18T15:56:32.436Z,60
2018-03-18T15:57:32.685Z,60
2018-03-18T15:58:32.729Z,55
2018-03-18T15:59:32.417Z,55
2018-03-18T16:00:32.416Z,55
2018-03-18T16:01:32.724Z,55
2018-03-18T16:02:32.384Z,55
2018-03-18T16:03:32.623Z,50
2018-03-18T16:04:32.102Z,50
2018-03-18T16:05:32.367Z,50
2018-03-18T16:06:32.072Z,45
2018-03-18T16:07:32.071Z,45
2018-03-18T16:08:32.566Z,45
2018-03-18T16:09:32.048Z,45
2018-03-18T16:10:32.305Z,40
2018-03-18T16:11:32.084Z,40
2018-03-18T16:12:32.277Z,40
2018-03-18T16:13:32.278Z,40
2018-03-18T16:14:32.253Z,40
2018-03-18T16:15:32.497Z,40
2018-03-18T16:16:33.069Z,40
2018-03-18T16:17:32.212Z,40
2018-03-18T16:18:32.005Z,40
2018-03-18T16:19:31.944Z,35
2018-03-18T16:20:32.438Z,35
2018-03-18T16:21:31.921Z,35
2018-03-18T16:22:32.154Z,35
2018-03-18T16:23:32.158Z,35
2018-03-18T16:24:32.152Z,35
2018-03-18T16:25:31.923Z,35
2018-03-18T16:26:32.365Z,35
2018-03-18T16:27:32.099Z,35
2018-03-18T16:28:32.361Z,35
2018-03-18T16:29:32.452Z,30
2018-03-18T16:30:32.037Z,30
2018-03-18T16:31:32.072Z,30
2018-03-18T16:32:31.540Z,30
2018-03-18T16:33:32.043Z,30
2018-03-18T16:34:31.789Z,30
2018-03-18T16:35:32.281Z,30
2018-03-18T16:36:32.174Z,30
2018-03-18T16:37:32.263Z,25
2018-03-18T16:38:31.849Z,25
2018-03-18T16:39:32.236Z,25
2018-03-18T16:40:31.966Z,25
2018-03-18T16:41:31.717Z,25
2018-03-18T16:42:31.934Z,25
2018-03-18T16:43:31.933Z,25
2018-03-18T16:44:31.913Z,20
2018-03-18T16:45:31.923Z,20
2018-03-18T16:46:31.638Z,20
2018-03-18T16:47:33.205Z,20
2018-03-18T16:48:31.888Z,20
2018-03-18T16:49:31.593Z,20
2018-03-18T16:50:32.204Z,20
2018-03-18T16:51:31.580Z,15
2018-03-18T16:52:32.213Z,15
2018-03-18T16:53:31.813Z,15
2018-03-18T16:54:32.075Z,15
2018-03-18T16:55:31.533Z,15
2018-03-18T16:56:31.521Z,15
2018-03-18T16:57:31.787Z,15
2018-03-18T16:58:32.019Z,15
2018-03-18T16:59:31.743Z,15
2018-03-18T17:00:31.755Z,10
2018-03-18T17:01:31.806Z,10
2018-03-18T17:02:31.761Z,10
2018-03-18T17:03:31.952Z,10
2018-03-18T17:04:31.678Z,10
2018-03-18T17:05:31.418Z,10
2018-03-18T17:06:32.018Z,10
2018-03-18T17:07:31.640Z,10
2018-03-18T17:08:31.636Z,10
2018-03-18T17:09:31.924Z,10
2018-03-18T17:10:31.355Z,5
2018-03-18T17:11:31.354Z,5
2018-03-18T17:12:31.593Z,5
2018-03-18T17:13:31.579Z,5
2018-03-18T17:14:31.583Z,5
2018-03-18T17:15:31.300Z,5
2018-03-18T17:16:31.323Z,5
2018-03-18T17:17:33.696Z,5
2018-03-18T17:18:31.530Z,5
2018-03-18T17:19:31.513Z,5
2018-03-18T17:20:31.496Z,5
2018-03-18T17:21:31.770Z,5
2018-03-18T17:22:31.235Z,5
2018-03-18T17:23:31.219Z,0
2018-03-18T17:24:31.737Z,0
2018-03-18T17:25:31.442Z,0
2018-03-18T17:26:31.948Z,0
2018-03-18T17:27:31.451Z,0
2018-03-18T17:28:31.675Z,0
2018-03-18T17:29:31.420Z,0
2018-03-18T17:30:31.390Z,0
2018-03-18T17:31:31.620Z,0
2018-03-18T17:32:31.107Z,0
2018-03-18T17:33:31.371Z,0
2018-03-18T17:34:31.592Z,0
2018-03-18T17:35:31.073Z,0
2018-03-18T17:36:31.600Z,0
2018-03-18T17:37:31.047Z,0
2018-03-18T17:38:31.037Z,0
2018-03-18T17:39:31.021Z,0
2018-03-18T17:40:31.521Z,0
2018-03-18T17:41:31.097Z,0
2018-03-18T17:42:30.990Z,0
2018-03-18T17:43:31.013Z,0
2018-03-18T17:44:30.973Z,0
2018-03-18T17:45:31.250Z,0
2018-03-18T17:46:31.448Z,0
2018-03-18T17:47:31.175Z,0
2018-03-18T17:48:31.790Z,0
2018-03-18T17:49:31.220Z,0
2018-03-18T17:50:31.148Z,0
2018-03-18T17:51:30.897Z,0
2018-03-18T17:52:30.636Z,0
2018-03-18T17:53:31.123Z,0
2018-03-18T17:54:31.106Z,0
2018-03-18T17:55:32.096Z,0
2018-03-18T17:56:31.028Z,0
2018-03-18T17:57:31.425Z,0
2018-03-18T17:58:31.264Z,0
2018-03-18T17:59:30.287Z,0
2018-03-18T18:00:32.559Z,0
2018-03-18T18:01:31.345Z,0
2018-03-18T18:02:31.021Z,0
2018-03-18T18:03:30.734Z,0
2018-03-18T18:04:30.728Z,0
2018-03-18T18:05:31.241Z,0
2018-03-18T18:06:31.270Z,0
2018-03-18T18:07:31.216Z,0
2018-03-18T18:08:30.936Z,0
2018-03-18T18:09:30.674Z,0
2018-03-18T18:10:30.906Z,0
2018-03-18T18:11:30.943Z,0
2018-03-18T18:12:31.165Z,0
2018-03-18T18:13:32.229Z,0
2018-03-18T18:14:30.888Z,0
2018-03-18T18:15:30.113Z,0
2018-03-18T18:16:30.589Z,0
2018-03-18T18:17:30.844Z,0
2018-03-18T18:18:32.173Z,0
2018-03-18T18:19:31.055Z,0
2018-03-18T18:20:30.797Z,0
2018-03-18T18:21:30.788Z,0
2018-03-18T18:22:31.052Z,0
2018-03-18T18:23:30.249Z,0
2018-03-18T18:24:31.050Z,0
2018-03-18T18:25:30.766Z,0
2018-03-18T18:26:30.730Z,0
2018-03-18T18:27:30.734Z,0
2018-03-18T18:28:30.856Z,0
2018-03-18T18:29:30.431Z,0
2018-03-18T18:30:30.697Z,0
2018-03-18T18:31:30.910Z,0
2018-03-18T18:32:30.678Z,0
2018-03-18T18:33:30.995Z,0
2018-03-18T18:34:30.888Z,0
2018-03-18T18:35:30.630Z,0
2018-03-18T18:36:30.116Z,0
2018-03-18T18:37:30.598Z,0
2018-03-18T18:38:30.637Z,0
2018-03-18T18:39:30.829Z,0
2018-03-18T18:40:30.299Z,0
2018-03-18T18:41:30.551Z,0
2018-03-18T18:42:30.293Z,0
2018-03-18T18:43:30.646Z,0
2018-03-18T18:44:30.780Z,0
2018-03-18T18:45:30.748Z,0
2018-03-18T18:46:30.758Z,0
2018-03-18T18:47:30.475Z,0
2018-03-18T18:48:30.485Z,0
2018-03-18T18:49:36.276Z,0
2018-03-18T18:50:30.187Z,0
2018-03-18T18:51:30.698Z,0
2018-03-18T18:52:30.682Z,0
2018-03-18T18:53:30.407Z,0
2018-03-18T18:54:30.139Z,0
2018-03-18T18:55:30.158Z,0
2018-03-18T18:56:30.135Z,0
2018-03-18T18:57:30.644Z,0
2018-03-18T18:58:30.601Z,0
2018-03-18T18:59:30.595Z,0
2018-03-18T19:00:30.083Z,0
2018-03-18T19:01:30.567Z,0
2018-03-18T19:02:30.331Z,0
2018-03-18T19:03:30.297Z,0
2018-03-18T19:04:30.273Z,0
2018-03-18T19:05:30.274Z,0
2018-03-18T19:06:30.559Z,0
2018-03-18T19:07:30.354Z,0
2018-03-18T19:08:29.966Z,0
2018-03-18T19:09:30.211Z,0
2018-03-18T19:10:29.698Z,0
2018-03-18T19:11:29.946Z,0
2018-03-18T19:12:29.964Z,0
2018-03-18T19:13:29.908Z,0
2018-03-18T19:14:30.426Z,0
2018-03-18T19:15:30.156Z,0
2018-03-18T19:16:29.938Z,0
2018-03-18T19:17:30.376Z,0
2018-03-18T19:18:30.100Z,0
2018-03-18T19:19:34.442Z,0
2018-03-18T19:20:29.819Z,0
2018-03-18T19:21:29.574Z,0
2018-03-18T19:22:29.811Z,0
2018-03-18T19:23:30.042Z,0
2018-03-18T19:24:30.298Z,0
2018-03-18T19:25:29.765Z,0
2018-03-18T19:26:29.766Z,0
2018-03-18T19:27:30.005Z,0
2018-03-18T19:28:29.994Z,0
2018-03-18T19:29:30.019Z,0
2018-03-18T19:30:29.966Z,0
2018-03-18T19:31:29.953Z,0
2018-03-18T19:32:30.197Z,0
2018-03-18T19:33:29.669Z,0
2018-03-18T19:34:29.676Z,0
2018-03-18T19:35:29.643Z,0
2018-03-18T19:36:29.943Z,0
2018-03-18T19:37:29.945Z,0
2018-03-18T19:38:29.868Z,0
2018-03-18T19:39:29.856Z,0
2018-03-18T19:40:30.168Z,0
2018-03-18T19:41:29.575Z,0
2018-03-18T19:42:29.561Z,0
2018-03-18T19:43:30.062Z,0
2018-03-18T19:44:29.803Z,0
2018-03-18T19:45:29.910Z,0
2018-03-18T19:46:29.768Z,0
2018-03-18T19:47:29.522Z,0
2018-03-18T19:48:29.492Z,0
2018-03-18T19:49:29.739Z,0
2018-03-18T19:50:31.271Z,0
2018-03-18T19:51:29.971Z,0
2018-03-18T19:52:30.011Z,0
2018-03-18T19:53:29.820Z,0
2018-03-18T19:54:29.988Z,0
2018-03-18T19:55:29.926Z,0
2018-03-18T19:56:30.055Z,0
2018-03-18T19:57:29.898Z,0
2018-03-18T19:58:29.361Z,0
2018-03-18T19:59:29.973Z,0
2018-03-18T20:00:29.593Z,0
2018-03-18T20:01:29.597Z,0
2018-03-18T20:02:29.330Z,0
2018-03-18T20:03:29.896Z,0
2018-03-18T20:04:29.294Z,0
2018-03-18T20:05:29.313Z,0
2018-03-18T20:06:29.780Z,0
2018-03-18T20:07:29.768Z,0
2018-03-18T20:08:29.258Z,0
2018-03-18T20:09:29.241Z,0
2018-03-18T20:10:29.498Z,0
2018-03-18T20:11:29.473Z,0
2018-03-18T20:12:29.736Z,0
2018-03-18T20:13:29.693Z,0
2018-03-18T20:14:29.696Z,0
2018-03-18T20:15:29.668Z,0
2018-03-18T20:16:29.662Z,0
2018-03-18T20:17:29.652Z,0
2018-03-18T20:18:29.383Z,0
2018-03-18T20:19:29.638Z,0
2018-03-18T20:20:29.812Z,0
2018-03-18T20:21:29.380Z,0
2018-03-18T20:22:29.340Z,0
2018-03-18T20:23:29.339Z,0
2018-03-18T20:24:28.812Z,0
2018-03-18T20:25:29.300Z,0
2018-03-18T20:26:28.789Z,0
2018-03-18T20:27:29.292Z,0
2018-03-18T20:28:29.261Z,0
2018-03-18T20:29:29.282Z,0
2018-03-18T20:30:28.751Z,0
2018-03-18T20:31:29.275Z,0
2018-03-18T20:32:29.027Z,0
2018-03-18T20:33:29.256Z,0
2018-03-18T20:34:29.193Z,0
2018-03-18T20:35:28.944Z,0
2018-03-18T20:36:29.386Z,0
2018-03-18T20:37:28.994Z,0
2018-03-18T20:38:29.422Z,0
2018-03-18T20:39:29.164Z,0
2018-03-18T20:40:29.523Z,0
2018-03-18T20:41:29.107Z,0
2018-03-18T20:42:29.111Z,0
2018-03-18T20:43:29.086Z,0
2018-03-18T20:44:29.096Z,0
2018-03-18T20:45:29.132Z,0
2018-03-18T20:46:29.346Z,0
2018-03-18T20:47:29.196Z,0
2018-03-18T20:48:28.568Z,0
2018-03-18T20:49:29.014Z,0
2018-03-18T20:50:28.796Z,0
2018-03-18T20:51:29.262Z,0
2018-03-18T20:52:29.034Z,0
2018-03-18T20:53:29.246Z,0
2018-03-18T20:54:28.718Z,0
2018-03-18T20:55:29.194Z,0
2018-03-18T20:56:29.194Z,0
2018-03-18T20:57:28.685Z,0
2018-03-18T20:58:28.722Z,0
2018-03-18T20:59:28.891Z,0
2018-03-18T21:00:28.877Z,0
2018-03-18T21:01:28.874Z,0
2018-03-18T21:02:28.104Z,0
2018-03-18T21:03:28.875Z,0
2018-03-18T21:04:29.160Z,0
2018-03-18T21:05:29.084Z,0
2018-03-18T21:06:28.811Z,0